createdAt,value
2023-05-15T00:00:58.000Z,15.33
2023-05-15T00:01:58.000Z,15.33
2023-05-15T00:02:58.000Z,15.33
2023-05-15T00:03:59.000Z,15.32
2023-05-15T00:04:58.000Z,15.28
2023-05-15T00:05:59.000Z,15.29
2023-05-15T00:06:58.000Z,15.29
2023-05-15T00:07:58.000Z,15.29
2023-05-15T00:08:58.000Z,15.29
2023-05-15T00:09:58.000Z,15.28
2023-05-15T00:10:58.000Z,15.28
2023-05-15T00:11:58.000Z,15.27
2023-05-15T00:12:58.000Z,15.27
2023-05-15T00:13:58.000Z,15.27
2023-05-15T00:14:58.000Z,15.28
2023-05-15T00:15:59.000Z,15.27
2023-05-15T00:16:59.000Z,15.27
2023-05-15T00:17:58.000Z,15.25
2023-05-15T00:18:58.000Z,15.26
2023-05-15T00:19:59.000Z,15.26
2023-05-15T00:20:59.000Z,15.25
2023-05-15T00:21:58.000Z,15.27
2023-05-15T00:22:58.000Z,15.26
2023-05-15T00:23:59.000Z,15.26
2023-05-15T00:24:58.000Z,15.24
2023-05-15T00:25:59.000Z,15.24
2023-05-15T00:26:59.000Z,15.23
2023-05-15T00:27:58.000Z,15.26
2023-05-15T00:28:58.000Z,15.26
2023-05-15T00:29:58.000Z,15.23
2023-05-15T00:30:58.000Z,15.21
2023-05-15T00:31:59.000Z,15.22
2023-05-15T00:32:58.000Z,15.21
2023-05-15T00:33:58.000Z,15.20
2023-05-15T00:34:59.000Z,15.20
2023-05-15T00:35:58.000Z,15.20
2023-05-15T00:36:59.000Z,15.15
2023-05-15T00:37:58.000Z,15.16
2023-05-15T00:38:58.000Z,15.15
2023-05-15T00:39:59.000Z,15.15
2023-05-15T00:41:00.000Z,15.15
2023-05-15T00:41:59.000Z,15.14
2023-05-15T00:42:59.000Z,15.11
2023-05-15T00:44:00.000Z,15.12
2023-05-15T00:45:00.000Z,15.09
2023-05-15T00:46:00.000Z,15.09
2023-05-15T00:47:00.000Z,15.08
2023-05-15T00:48:00.000Z,15.08
2023-05-15T00:49:01.000Z,15.08
2023-05-15T00:49:59.000Z,15.02
2023-05-15T00:50:59.000Z,15.01
2023-05-15T00:52:00.000Z,15.01
2023-05-15T00:52:59.000Z,14.98
2023-05-15T00:53:59.000Z,14.98
2023-05-15T00:54:59.000Z,14.96
2023-05-15T00:56:00.000Z,14.93
2023-05-15T00:57:00.000Z,14.93
2023-05-15T00:58:00.000Z,14.91
2023-05-15T00:59:01.000Z,14.91
2023-05-15T01:00:01.000Z,14.90
2023-05-15T01:00:59.000Z,14.87
2023-05-15T01:01:59.000Z,14.88
2023-05-15T01:03:00.000Z,14.88
2023-05-15T01:04:00.000Z,14.87
2023-05-15T01:04:59.000Z,14.87
2023-05-15T01:05:59.000Z,14.89
2023-05-15T01:06:59.000Z,14.82
2023-05-15T01:08:14.000Z,14.74
2023-05-15T01:09:01.000Z,14.75
2023-05-15T01:10:01.000Z,14.66
2023-05-15T01:11:01.000Z,14.65
2023-05-15T01:11:59.000Z,14.70
2023-05-15T01:13:01.000Z,14.69
2023-05-15T01:13:58.000Z,14.72
2023-05-15T01:14:58.000Z,14.70
2023-05-15T01:15:58.000Z,14.70
2023-05-15T01:16:58.000Z,14.74
2023-05-15T01:17:58.000Z,14.74
2023-05-15T01:18:58.000Z,14.72
2023-05-15T01:20:04.000Z,14.72
2023-05-15T01:21:08.000Z,14.73
2023-05-15T01:22:19.000Z,14.72
2023-05-15T01:23:10.000Z,14.68
2023-05-15T01:24:29.000Z,14.64
2023-05-15T01:25:08.000Z,14.61
2023-05-15T01:26:18.000Z,14.60
2023-05-15T01:27:08.000Z,14.60
2023-05-15T01:28:04.000Z,14.60
2023-05-15T01:29:06.000Z,14.59
2023-05-15T01:30:09.000Z,14.59
2023-05-15T01:31:08.000Z,14.59
2023-05-15T01:32:04.000Z,14.58
2023-05-15T01:33:06.000Z,14.55
2023-05-15T01:34:03.000Z,14.57
2023-05-15T01:35:08.000Z,14.55
2023-05-15T01:36:10.000Z,14.55
2023-05-15T01:37:01.000Z,14.58
2023-05-15T01:38:12.000Z,14.58
2023-05-15T01:39:01.000Z,14.59
2023-05-15T01:40:00.000Z,14.60
2023-05-15T01:41:08.000Z,14.60
2023-05-15T01:42:06.000Z,14.59
2023-05-15T01:43:06.000Z,14.59
2023-05-15T01:44:06.000Z,14.60
2023-05-15T01:45:03.000Z,14.60
2023-05-15T01:45:59.000Z,14.61
2023-05-15T01:47:09.000Z,14.63
2023-05-15T01:48:00.000Z,14.63
2023-05-15T01:49:01.000Z,14.62
2023-05-15T01:50:01.000Z,14.65
2023-05-15T01:51:03.000Z,14.64
2023-05-15T01:52:07.000Z,14.65
2023-05-15T01:53:01.000Z,14.68
2023-05-15T01:53:59.000Z,14.66
2023-05-15T01:55:01.000Z,14.68
2023-05-15T01:56:01.000Z,14.65
2023-05-15T01:56:59.000Z,14.65
2023-05-15T01:58:00.000Z,14.67
2023-05-15T01:58:59.000Z,14.66
2023-05-15T02:00:00.000Z,14.68
2023-05-15T02:01:00.000Z,14.69
2023-05-15T02:02:00.000Z,14.67
2023-05-15T02:03:00.000Z,14.69
2023-05-15T02:04:00.000Z,14.70
2023-05-15T02:05:01.000Z,14.70
2023-05-15T02:06:04.000Z,14.71
2023-05-15T02:07:01.000Z,14.71
2023-05-15T02:08:01.000Z,14.72
2023-05-15T02:09:01.000Z,14.70
2023-05-15T02:10:01.000Z,14.69
2023-05-15T02:11:01.000Z,14.68
2023-05-15T02:12:00.000Z,14.65
2023-05-15T02:12:59.000Z,14.64
2023-05-15T02:13:59.000Z,14.59
2023-05-15T02:15:01.000Z,14.55
2023-05-15T02:15:58.000Z,14.50
2023-05-15T02:16:59.000Z,14.49
2023-05-15T02:17:58.000Z,14.46
2023-05-15T02:18:58.000Z,14.47
2023-05-15T02:19:58.000Z,14.46
2023-05-15T02:21:01.000Z,14.45
2023-05-15T02:21:58.000Z,14.42
2023-05-15T02:22:58.000Z,14.41
2023-05-15T02:23:58.000Z,14.40
2023-05-15T02:24:58.000Z,14.32
2023-05-15T02:26:08.000Z,14.27
2023-05-15T02:27:05.000Z,14.27
2023-05-15T02:27:59.000Z,14.28
2023-05-15T02:29:15.000Z,14.27
2023-05-15T02:30:08.000Z,14.27
2023-05-15T02:31:15.000Z,14.24
2023-05-15T02:32:12.000Z,14.23
2023-05-15T02:33:12.000Z,14.22
2023-05-15T02:34:11.000Z,14.21
2023-05-15T02:35:08.000Z,14.19
2023-05-15T02:36:06.000Z,14.21
2023-05-15T02:36:59.000Z,14.19
2023-05-15T02:38:01.000Z,14.21
2023-05-15T02:39:00.000Z,14.22
2023-05-15T02:39:59.000Z,14.18
2023-05-15T02:40:59.000Z,14.21
2023-05-15T02:41:59.000Z,14.18
2023-05-15T02:42:59.000Z,14.20
2023-05-15T02:43:59.000Z,14.21
2023-05-15T02:45:00.000Z,14.18
2023-05-15T02:45:59.000Z,14.19
2023-05-15T02:46:59.000Z,14.20
2023-05-15T02:48:00.000Z,14.19
2023-05-15T02:49:00.000Z,14.16
2023-05-15T02:49:59.000Z,14.16
2023-05-15T02:50:58.000Z,14.14
2023-05-15T02:51:59.000Z,14.14
2023-05-15T02:53:03.000Z,14.13
2023-05-15T02:53:59.000Z,14.10
2023-05-15T02:54:59.000Z,14.09
2023-05-15T02:55:59.000Z,14.08
2023-05-15T02:56:58.000Z,14.05
2023-05-15T02:57:59.000Z,14.05
2023-05-15T02:58:58.000Z,14.04
2023-05-15T02:59:59.000Z,14.06
2023-05-15T03:00:58.000Z,14.04
2023-05-15T03:01:58.000Z,14.02
2023-05-15T03:02:58.000Z,13.98
2023-05-15T03:03:58.000Z,13.97
2023-05-15T03:04:58.000Z,13.91
2023-05-15T03:06:02.000Z,13.90
2023-05-15T03:06:58.000Z,13.90
2023-05-15T03:07:59.000Z,13.90
2023-05-15T03:08:58.000Z,13.89
2023-05-15T03:09:58.000Z,13.87
2023-05-15T03:10:58.000Z,13.86
2023-05-15T03:11:58.000Z,13.86
2023-05-15T03:12:58.000Z,13.80
2023-05-15T03:13:58.000Z,13.79
2023-05-15T03:14:58.000Z,13.77
2023-05-15T03:15:58.000Z,13.74
2023-05-15T03:16:59.000Z,13.71
2023-05-15T03:17:58.000Z,13.68
2023-05-15T03:18:58.000Z,13.67
2023-05-15T03:19:58.000Z,13.69
2023-05-15T03:20:58.000Z,13.68
2023-05-15T03:21:58.000Z,13.70
2023-05-15T03:22:58.000Z,13.67
2023-05-15T03:23:59.000Z,13.67
2023-05-15T03:25:00.000Z,13.68
2023-05-15T03:25:58.000Z,13.70
2023-05-15T03:26:58.000Z,13.70
2023-05-15T03:27:58.000Z,13.69
2023-05-15T03:29:00.000Z,13.70
2023-05-15T03:29:58.000Z,13.71
2023-05-15T03:30:58.000Z,13.71
2023-05-15T03:31:58.000Z,13.71
2023-05-15T03:32:59.000Z,13.70
2023-05-15T03:33:58.000Z,13.68
2023-05-15T03:34:59.000Z,13.69
2023-05-15T03:35:58.000Z,13.67
2023-05-15T03:36:58.000Z,13.67
2023-05-15T03:37:58.000Z,13.67
2023-05-15T03:38:58.000Z,13.67
2023-05-15T03:39:58.000Z,13.70
2023-05-15T03:40:58.000Z,13.65
2023-05-15T03:41:58.000Z,13.64
2023-05-15T03:42:58.000Z,13.63
2023-05-15T03:43:58.000Z,13.61
2023-05-15T03:44:58.000Z,13.62
2023-05-15T03:45:58.000Z,13.63
2023-05-15T03:46:59.000Z,13.63
2023-05-15T03:47:59.000Z,13.62
2023-05-15T03:48:59.000Z,13.59
2023-05-15T03:49:58.000Z,13.58
2023-05-15T03:50:59.000Z,13.58
2023-05-15T03:51:59.000Z,13.58
2023-05-15T03:52:59.000Z,13.57
2023-05-15T03:53:59.000Z,13.54
2023-05-15T03:55:00.000Z,13.53
2023-05-15T03:55:59.000Z,13.52
2023-05-15T03:56:59.000Z,13.51
2023-05-15T03:57:59.000Z,13.50
2023-05-15T03:58:59.000Z,13.48
2023-05-15T04:00:00.000Z,13.47
2023-05-15T04:00:59.000Z,13.50
2023-05-15T04:01:59.000Z,13.46
2023-05-15T04:02:59.000Z,13.45
2023-05-15T04:03:59.000Z,13.46
2023-05-15T04:04:58.000Z,13.44
2023-05-15T04:05:58.000Z,13.44
2023-05-15T04:06:59.000Z,13.44
2023-05-15T04:07:59.000Z,13.42
2023-05-15T04:08:59.000Z,13.45
2023-05-15T04:10:00.000Z,13.44
2023-05-15T04:10:59.000Z,13.43
2023-05-15T04:11:58.000Z,13.44
2023-05-15T04:12:58.000Z,13.42
2023-05-15T04:13:59.000Z,13.40
2023-05-15T04:15:15.000Z,13.40
2023-05-15T04:15:59.000Z,13.40
2023-05-15T04:16:58.000Z,13.40
2023-05-15T04:17:59.000Z,13.40
2023-05-15T04:18:59.000Z,13.40
2023-05-15T04:19:58.000Z,13.42
2023-05-15T04:20:58.000Z,13.42
2023-05-15T04:21:58.000Z,13.42
2023-05-15T04:22:59.000Z,13.41
2023-05-15T04:23:58.000Z,13.43
2023-05-15T04:24:59.000Z,13.41
2023-05-15T04:25:59.000Z,13.38
2023-05-15T04:26:58.000Z,13.38
2023-05-15T04:27:58.000Z,13.36
2023-05-15T04:28:59.000Z,13.37
2023-05-15T04:29:59.000Z,13.37
2023-05-15T04:30:59.000Z,13.37
2023-05-15T04:31:59.000Z,13.37
2023-05-15T04:32:59.000Z,13.36
2023-05-15T04:33:58.000Z,13.35
2023-05-15T04:34:59.000Z,13.37
2023-05-15T04:35:59.000Z,13.39
2023-05-15T04:36:58.000Z,13.38
2023-05-15T04:37:59.000Z,13.40
2023-05-15T04:38:59.000Z,13.40
2023-05-15T04:39:58.000Z,13.41
2023-05-15T04:40:59.000Z,13.40
2023-05-15T04:41:58.000Z,13.41
2023-05-15T04:42:58.000Z,13.40
2023-05-15T04:43:58.000Z,13.38
2023-05-15T04:44:59.000Z,13.39
2023-05-15T04:45:59.000Z,13.38
2023-05-15T04:46:58.000Z,13.37
2023-05-15T04:47:58.000Z,13.38
2023-05-15T04:48:59.000Z,13.39
2023-05-15T04:49:59.000Z,13.39
2023-05-15T04:50:58.000Z,13.39
2023-05-15T04:51:58.000Z,13.38
2023-05-15T04:52:58.000Z,13.39
2023-05-15T04:53:58.000Z,13.39
2023-05-15T04:54:59.000Z,13.40
2023-05-15T04:55:58.000Z,13.40
2023-05-15T04:56:59.000Z,13.40
2023-05-15T04:57:58.000Z,13.43
2023-05-15T04:58:59.000Z,13.43
2023-05-15T04:59:58.000Z,13.42
2023-05-15T05:00:59.000Z,13.45
2023-05-15T05:01:59.000Z,13.45
2023-05-15T05:02:58.000Z,13.45
2023-05-15T05:03:58.000Z,13.45
2023-05-15T05:04:58.000Z,13.46
2023-05-15T05:05:59.000Z,13.46
2023-05-15T05:06:59.000Z,13.45
2023-05-15T05:07:58.000Z,13.44
2023-05-15T05:08:58.000Z,13.45
2023-05-15T05:09:59.000Z,13.45
2023-05-15T05:10:58.000Z,13.46
2023-05-15T05:11:59.000Z,13.46
2023-05-15T05:12:58.000Z,13.47
2023-05-15T05:13:58.000Z,13.50
2023-05-15T05:14:59.000Z,13.49
2023-05-15T05:15:58.000Z,13.49
2023-05-15T05:16:59.000Z,13.50
2023-05-15T05:17:58.000Z,13.48
2023-05-15T05:18:58.000Z,13.49
2023-05-15T05:19:58.000Z,13.51
2023-05-15T05:20:59.000Z,13.51
2023-05-15T05:22:04.000Z,13.51
2023-05-15T05:22:58.000Z,13.52
2023-05-15T05:23:59.000Z,13.52
2023-05-15T05:24:59.000Z,13.53
2023-05-15T05:25:59.000Z,13.53
2023-05-15T05:26:59.000Z,13.54
2023-05-15T05:27:58.000Z,13.51
2023-05-15T05:28:58.000Z,13.51
2023-05-15T05:29:59.000Z,13.52
2023-05-15T05:30:58.000Z,13.53
2023-05-15T05:31:58.000Z,13.55
2023-05-15T05:32:58.000Z,13.55
2023-05-15T05:33:58.000Z,13.57
2023-05-15T05:34:58.000Z,13.59
2023-05-15T05:35:58.000Z,13.58
2023-05-15T05:36:58.000Z,13.58
2023-05-15T05:37:59.000Z,13.62
2023-05-15T05:38:58.000Z,13.63
2023-05-15T05:39:58.000Z,13.64
2023-05-15T05:41:00.000Z,13.68
2023-05-15T05:41:58.000Z,13.67
2023-05-15T05:43:00.000Z,13.69
2023-05-15T05:43:58.000Z,13.63
2023-05-15T05:44:59.000Z,13.65
2023-05-15T05:45:58.000Z,13.61
2023-05-15T05:46:58.000Z,13.55
2023-05-15T05:47:58.000Z,13.57
2023-05-15T05:48:59.000Z,13.61
2023-05-15T05:49:59.000Z,13.61
2023-05-15T05:50:59.000Z,13.60
2023-05-15T05:52:05.000Z,13.59
2023-05-15T05:52:59.000Z,13.60
2023-05-15T05:53:59.000Z,13.63
2023-05-15T05:54:59.000Z,13.68
2023-05-15T05:55:59.000Z,13.69
2023-05-15T05:56:59.000Z,13.71
2023-05-15T05:57:59.000Z,13.76
2023-05-15T05:59:00.000Z,13.78
2023-05-15T05:59:59.000Z,13.83
2023-05-15T06:00:59.000Z,13.85
2023-05-15T06:01:59.000Z,13.83
2023-05-15T06:02:59.000Z,13.86
2023-05-15T06:03:59.000Z,13.89
2023-05-15T06:04:59.000Z,13.90
2023-05-15T06:05:59.000Z,13.92
2023-05-15T06:06:58.000Z,13.95
2023-05-15T06:08:00.000Z,13.99
2023-05-15T06:08:59.000Z,14.01
2023-05-15T06:09:59.000Z,14.04
2023-05-15T06:10:59.000Z,14.06
2023-05-15T06:11:59.000Z,14.08
2023-05-15T06:12:59.000Z,14.12
2023-05-15T06:13:59.000Z,14.17
2023-05-15T06:14:59.000Z,14.19
2023-05-15T06:15:59.000Z,14.21
2023-05-15T06:16:59.000Z,14.24
2023-05-15T06:17:59.000Z,14.20
2023-05-15T06:18:58.000Z,14.18
2023-05-15T06:19:59.000Z,14.20
2023-05-15T06:20:59.000Z,14.24
2023-05-15T06:21:58.000Z,14.27
2023-05-15T06:22:59.000Z,14.31
2023-05-15T06:23:59.000Z,14.34
2023-05-15T06:24:59.000Z,14.37
2023-05-15T06:26:00.000Z,14.38
2023-05-15T06:26:59.000Z,14.31
2023-05-15T06:27:59.000Z,14.36
2023-05-15T06:28:59.000Z,14.40
2023-05-15T06:29:59.000Z,14.44
2023-05-15T06:30:59.000Z,14.47
2023-05-15T06:31:58.000Z,14.50
2023-05-15T06:32:58.000Z,14.52
2023-05-15T06:33:59.000Z,14.57
2023-05-15T06:34:58.000Z,14.62
2023-05-15T06:35:58.000Z,14.68
2023-05-15T06:37:00.000Z,14.66
2023-05-15T06:37:58.000Z,14.68
2023-05-15T06:38:58.000Z,14.70
2023-05-15T06:39:59.000Z,14.71
2023-05-15T06:40:58.000Z,14.76
2023-05-15T06:42:00.000Z,14.78
2023-05-15T06:42:58.000Z,14.81
2023-05-15T06:43:59.000Z,14.86
2023-05-15T06:44:59.000Z,14.93
2023-05-15T06:45:58.000Z,14.97
2023-05-15T06:46:58.000Z,15.02
2023-05-15T06:47:58.000Z,15.03
2023-05-15T06:48:58.000Z,15.06
2023-05-15T06:49:59.000Z,15.05
2023-05-15T06:50:59.000Z,15.10
2023-05-15T06:51:59.000Z,15.15
2023-05-15T06:52:59.000Z,15.18
2023-05-15T06:53:59.000Z,15.22
2023-05-15T06:54:59.000Z,15.23
2023-05-15T06:55:58.000Z,15.25
2023-05-15T06:56:59.000Z,15.29
2023-05-15T06:57:59.000Z,15.32
2023-05-15T06:58:59.000Z,15.34
2023-05-15T06:59:58.000Z,15.35
2023-05-15T07:01:00.000Z,15.36
2023-05-15T07:01:59.000Z,15.39
2023-05-15T07:02:59.000Z,15.40
2023-05-15T07:03:59.000Z,15.40
2023-05-15T07:04:59.000Z,15.43
2023-05-15T07:05:58.000Z,15.44
2023-05-15T07:06:59.000Z,15.45
2023-05-15T07:07:59.000Z,15.47
2023-05-15T07:08:59.000Z,15.50
2023-05-15T07:09:58.000Z,15.52
2023-05-15T07:10:59.000Z,15.57
2023-05-15T07:11:59.000Z,15.57
2023-05-15T07:12:59.000Z,15.59
2023-05-15T07:13:59.000Z,15.60
2023-05-15T07:14:59.000Z,15.65
2023-05-15T07:15:58.000Z,15.66
2023-05-15T07:16:58.000Z,15.70
2023-05-15T07:17:58.000Z,15.65
2023-05-15T07:18:59.000Z,15.67
2023-05-15T07:19:59.000Z,15.69
2023-05-15T07:20:59.000Z,15.73
2023-05-15T07:21:59.000Z,15.73
2023-05-15T07:22:59.000Z,15.78
2023-05-15T07:23:59.000Z,15.60
2023-05-15T07:24:59.000Z,15.64
2023-05-15T07:25:59.000Z,15.69
2023-05-15T07:26:59.000Z,15.79
2023-05-15T07:27:59.000Z,15.85
2023-05-15T07:28:59.000Z,15.90
2023-05-15T07:30:00.000Z,15.91
2023-05-15T07:30:59.000Z,15.93
2023-05-15T07:31:59.000Z,15.98
2023-05-15T07:32:59.000Z,15.98
2023-05-15T07:33:59.000Z,16.02
2023-05-15T07:34:59.000Z,15.97
2023-05-15T07:35:59.000Z,16.02
2023-05-15T07:36:59.000Z,16.08
2023-05-15T07:37:59.000Z,16.13
2023-05-15T07:38:59.000Z,16.17
2023-05-15T07:39:59.000Z,16.23
2023-05-15T07:40:59.000Z,16.28
2023-05-15T07:41:59.000Z,16.31
2023-05-15T07:42:59.000Z,16.34
2023-05-15T07:43:59.000Z,16.34
2023-05-15T07:44:59.000Z,16.34
2023-05-15T07:45:59.000Z,16.27
2023-05-15T07:46:59.000Z,16.25
2023-05-15T07:48:12.000Z,16.22
2023-05-15T07:48:59.000Z,16.29
2023-05-15T07:49:59.000Z,16.34
2023-05-15T07:50:58.000Z,16.34
2023-05-15T07:51:58.000Z,16.36
2023-05-15T07:52:58.000Z,16.36
2023-05-15T07:53:58.000Z,16.41
2023-05-15T07:54:58.000Z,16.46
2023-05-15T07:55:58.000Z,16.48
2023-05-15T07:56:58.000Z,16.53
2023-05-15T07:57:58.000Z,16.55
2023-05-15T07:58:58.000Z,16.63
2023-05-15T07:59:58.000Z,16.64
2023-05-15T08:00:58.000Z,16.66
2023-05-15T08:01:58.000Z,16.70
2023-05-15T08:02:58.000Z,16.61
2023-05-15T08:03:58.000Z,16.64
2023-05-15T08:04:58.000Z,16.69
2023-05-15T08:05:58.000Z,16.75
2023-05-15T08:06:58.000Z,16.79
2023-05-15T08:07:58.000Z,16.77
2023-05-15T08:08:58.000Z,16.75
2023-05-15T08:09:58.000Z,16.75
2023-05-15T08:10:58.000Z,16.76
2023-05-15T08:12:08.000Z,16.79
2023-05-15T08:12:58.000Z,16.78
2023-05-15T08:13:58.000Z,16.70
2023-05-15T08:14:58.000Z,16.61
2023-05-15T08:15:58.000Z,16.64
2023-05-15T08:16:58.000Z,16.70
2023-05-15T08:17:58.000Z,16.71
2023-05-15T08:19:01.000Z,16.76
2023-05-15T08:19:58.000Z,16.79
2023-05-15T08:20:59.000Z,16.81
2023-05-15T08:21:58.000Z,16.74
2023-05-15T08:22:58.000Z,16.71
2023-05-15T08:23:59.000Z,16.70
2023-05-15T08:25:00.000Z,16.67
2023-05-15T08:25:58.000Z,16.77
2023-05-15T08:26:59.000Z,16.71
2023-05-15T08:28:00.000Z,16.76
2023-05-15T08:28:58.000Z,16.77
2023-05-15T08:29:59.000Z,16.81
2023-05-15T08:30:58.000Z,16.86
2023-05-15T08:31:58.000Z,16.92
2023-05-15T08:32:58.000Z,16.97
2023-05-15T08:33:58.000Z,17.05
2023-05-15T08:34:58.000Z,16.99
2023-05-15T08:35:58.000Z,17.02
2023-05-15T08:36:59.000Z,17.07
2023-05-15T08:37:58.000Z,17.10
2023-05-15T08:38:58.000Z,17.19
2023-05-15T08:39:58.000Z,17.15
2023-05-15T08:41:06.000Z,17.19
2023-05-15T08:42:13.000Z,17.17
2023-05-15T08:43:02.000Z,17.12
2023-05-15T08:44:03.000Z,17.14
2023-05-15T08:44:59.000Z,17.17
2023-05-15T08:45:59.000Z,17.23
2023-05-15T08:46:59.000Z,17.29
2023-05-15T08:47:59.000Z,17.33
2023-05-15T08:49:07.000Z,17.37
2023-05-15T08:50:05.000Z,17.39
2023-05-15T08:51:00.000Z,17.46
2023-05-15T08:51:58.000Z,17.50
2023-05-15T08:53:00.000Z,17.55
2023-05-15T08:53:58.000Z,17.60
2023-05-15T08:54:59.000Z,17.58
2023-05-15T08:55:58.000Z,17.59
2023-05-15T08:56:58.000Z,17.45
2023-05-15T08:57:58.000Z,17.45
2023-05-15T08:58:58.000Z,17.50
2023-05-15T08:59:58.000Z,17.49
2023-05-15T09:00:58.000Z,17.39
2023-05-15T09:01:58.000Z,17.39
2023-05-15T09:02:58.000Z,17.43
2023-05-15T09:03:57.000Z,17.42
2023-05-15T09:04:58.000Z,17.43
2023-05-15T09:05:58.000Z,17.38
2023-05-15T09:06:59.000Z,17.32
2023-05-15T09:08:03.000Z,17.41
2023-05-15T09:08:59.000Z,17.50
2023-05-15T09:09:59.000Z,17.45
2023-05-15T09:11:00.000Z,17.51
2023-05-15T09:11:58.000Z,17.59
2023-05-15T09:13:00.000Z,17.66
2023-05-15T09:13:58.000Z,17.70
2023-05-15T09:15:20.000Z,17.79
2023-05-15T09:15:58.000Z,17.82
2023-05-15T09:16:58.000Z,17.77
2023-05-15T09:17:59.000Z,17.74
2023-05-15T09:18:58.000Z,17.73
2023-05-15T09:19:57.000Z,17.74
2023-05-15T09:21:08.000Z,17.76
2023-05-15T09:22:09.000Z,17.87
2023-05-15T09:23:01.000Z,17.86
2023-05-15T09:24:08.000Z,17.79
2023-05-15T09:24:58.000Z,17.78
2023-05-15T09:25:59.000Z,17.73
2023-05-15T09:27:01.000Z,17.72
2023-05-15T09:27:59.000Z,17.78
2023-05-15T09:29:02.000Z,17.78
2023-05-15T09:30:07.000Z,17.84
2023-05-15T09:31:04.000Z,17.89
2023-05-15T09:32:17.000Z,17.95
2023-05-15T09:33:00.000Z,17.98
2023-05-15T09:34:00.000Z,17.99
2023-05-15T09:34:58.000Z,18.01
2023-05-15T09:35:59.000Z,17.96
2023-05-15T09:37:09.000Z,17.91
2023-05-15T09:38:00.000Z,17.88
2023-05-15T09:39:00.000Z,17.91
2023-05-15T09:40:07.000Z,18.00
2023-05-15T09:41:04.000Z,18.06
2023-05-15T09:42:08.000Z,18.12
2023-05-15T09:42:59.000Z,18.31
2023-05-15T09:43:59.000Z,18.32
2023-05-15T09:44:58.000Z,18.20
2023-05-15T09:45:59.000Z,18.16
2023-05-15T09:46:59.000Z,18.26
2023-05-15T09:47:59.000Z,18.29
2023-05-15T09:48:58.000Z,18.30
2023-05-15T09:49:58.000Z,18.34
2023-05-15T09:50:59.000Z,18.31
2023-05-15T09:51:59.000Z,18.36
2023-05-15T09:52:58.000Z,18.38
2023-05-15T09:53:58.000Z,18.41
2023-05-15T09:54:58.000Z,18.46
2023-05-15T09:55:58.000Z,18.48
2023-05-15T09:57:10.000Z,18.55
2023-05-15T09:58:08.000Z,18.61
2023-05-15T09:58:57.000Z,18.63
2023-05-15T09:59:59.000Z,18.70
2023-05-15T10:00:58.000Z,18.70
2023-05-15T10:01:57.000Z,18.61
2023-05-15T10:03:02.000Z,18.53
2023-05-15T10:03:59.000Z,18.54
2023-05-15T10:04:58.000Z,18.60
2023-05-15T10:05:58.000Z,18.64
2023-05-15T10:06:58.000Z,18.67
2023-05-15T10:07:58.000Z,18.73
2023-05-15T10:09:00.000Z,18.67
2023-05-15T10:09:59.000Z,18.74
2023-05-15T10:10:58.000Z,18.72
2023-05-15T10:11:58.000Z,18.81
2023-05-15T10:12:59.000Z,18.76
2023-05-15T10:13:58.000Z,18.77
2023-05-15T10:15:00.000Z,18.89
2023-05-15T10:15:59.000Z,18.83
2023-05-15T10:16:58.000Z,18.90
2023-05-15T10:17:59.000Z,18.88
2023-05-15T10:18:58.000Z,19.00
2023-05-15T10:20:00.000Z,18.92
2023-05-15T10:21:02.000Z,18.90
2023-05-15T10:21:58.000Z,18.89
2023-05-15T10:23:00.000Z,19.04
2023-05-15T10:24:00.000Z,19.04
2023-05-15T10:25:19.000Z,19.11
2023-05-15T10:26:01.000Z,19.21
2023-05-15T10:26:59.000Z,19.25
2023-05-15T10:27:59.000Z,19.38
2023-05-15T10:28:59.000Z,19.39
2023-05-15T10:29:59.000Z,19.36
2023-05-15T10:31:00.000Z,19.35
2023-05-15T10:31:59.000Z,19.37
2023-05-15T10:32:59.000Z,19.50
2023-05-15T10:33:59.000Z,19.54
2023-05-15T10:34:59.000Z,19.53
2023-05-15T10:35:59.000Z,19.49
2023-05-15T10:36:59.000Z,19.52
2023-05-15T10:37:59.000Z,19.38
2023-05-15T10:38:59.000Z,19.44
2023-05-15T10:40:00.000Z,19.48
2023-05-15T10:40:59.000Z,19.56
2023-05-15T10:41:59.000Z,19.70
2023-05-15T10:42:59.000Z,19.74
2023-05-15T10:44:00.000Z,19.76
2023-05-15T10:45:00.000Z,19.65
2023-05-15T10:45:59.000Z,19.70
2023-05-15T10:46:59.000Z,19.77
2023-05-15T10:48:01.000Z,19.71
2023-05-15T10:48:59.000Z,19.80
2023-05-15T10:49:58.000Z,19.79
2023-05-15T10:50:59.000Z,19.87
2023-05-15T10:51:59.000Z,19.83
2023-05-15T10:52:59.000Z,19.88
2023-05-15T10:54:00.000Z,20.00
2023-05-15T10:54:59.000Z,20.12
2023-05-15T10:55:58.000Z,20.07
2023-05-15T10:56:58.000Z,20.05
2023-05-15T10:57:58.000Z,20.08
2023-05-15T10:59:07.000Z,20.18
2023-05-15T10:59:59.000Z,20.15
2023-05-15T11:00:59.000Z,20.15
2023-05-15T11:02:21.000Z,20.19
2023-05-15T11:02:59.000Z,20.14
2023-05-15T11:04:04.000Z,20.03
2023-05-15T11:05:00.000Z,20.03
2023-05-15T11:06:07.000Z,20.00
2023-05-15T11:07:11.000Z,19.75
2023-05-15T11:08:08.000Z,19.71
2023-05-15T11:09:08.000Z,19.68
2023-05-15T11:09:58.000Z,19.77
2023-05-15T11:10:58.000Z,19.86
2023-05-15T11:12:01.000Z,19.82
2023-05-15T11:13:00.000Z,19.86
2023-05-15T11:14:12.000Z,19.86
2023-05-15T11:15:16.000Z,19.84
2023-05-15T11:15:58.000Z,19.89
2023-05-15T11:17:00.000Z,19.88
2023-05-15T11:18:05.000Z,19.81
2023-05-15T11:18:58.000Z,19.75
2023-05-15T11:19:58.000Z,19.70
2023-05-15T11:21:13.000Z,19.71
2023-05-15T11:22:28.000Z,19.68
2023-05-15T11:22:58.000Z,19.64
2023-05-15T11:24:03.000Z,19.73
2023-05-15T11:25:04.000Z,19.67
2023-05-15T11:26:00.000Z,19.69
2023-05-15T11:27:00.000Z,19.66
2023-05-15T11:27:58.000Z,19.64
2023-05-15T11:29:17.000Z,19.65
2023-05-15T11:30:20.000Z,19.65
2023-05-15T11:30:59.000Z,19.65
2023-05-15T11:31:58.000Z,19.66
2023-05-15T11:33:00.000Z,19.73
2023-05-15T11:34:04.000Z,19.90
2023-05-15T11:34:59.000Z,19.99
2023-05-15T11:35:59.000Z,20.07
2023-05-15T11:37:00.000Z,20.19
2023-05-15T11:38:18.000Z,20.30
2023-05-15T11:38:58.000Z,20.31
2023-05-15T11:39:59.000Z,20.24
2023-05-15T11:41:01.000Z,20.32
2023-05-15T11:42:09.000Z,20.36
2023-05-15T11:43:05.000Z,20.39
2023-05-15T11:43:58.000Z,20.44
2023-05-15T11:44:58.000Z,20.52
2023-05-15T11:46:06.000Z,20.50
2023-05-15T11:46:59.000Z,20.56
2023-05-15T11:48:03.000Z,20.57
2023-05-15T11:48:58.000Z,20.42
2023-05-15T11:49:58.000Z,20.37
2023-05-15T11:51:02.000Z,20.38
2023-05-15T11:51:58.000Z,20.33
2023-05-15T11:53:02.000Z,20.33
2023-05-15T11:53:59.000Z,20.39
2023-05-15T11:54:59.000Z,20.45
2023-05-15T11:55:58.000Z,20.41
2023-05-15T11:56:58.000Z,20.33
2023-05-15T11:57:59.000Z,20.32
2023-05-15T11:58:59.000Z,20.27
2023-05-15T11:59:58.000Z,20.26
2023-05-15T12:00:58.000Z,20.19
2023-05-15T12:01:58.000Z,20.09
2023-05-15T12:02:58.000Z,20.07
2023-05-15T12:03:58.000Z,20.11
2023-05-15T12:04:58.000Z,20.13
2023-05-15T12:06:00.000Z,20.16
2023-05-15T12:06:59.000Z,20.20
2023-05-15T12:07:59.000Z,20.29
2023-05-15T12:08:58.000Z,20.37
2023-05-15T12:09:59.000Z,20.41
2023-05-15T12:10:59.000Z,20.54
2023-05-15T12:11:58.000Z,20.58
2023-05-15T12:12:58.000Z,20.51
2023-05-15T12:13:58.000Z,20.57
2023-05-15T12:14:59.000Z,20.74
2023-05-15T12:16:00.000Z,20.78
2023-05-15T12:17:02.000Z,20.84
2023-05-15T12:18:02.000Z,20.93
2023-05-15T12:18:58.000Z,21.04
2023-05-15T12:19:58.000Z,21.07
2023-05-15T12:20:58.000Z,21.11
2023-05-15T12:21:58.000Z,21.18
2023-05-15T12:22:58.000Z,21.21
2023-05-15T12:23:58.000Z,21.28
2023-05-15T12:24:58.000Z,21.34
2023-05-15T12:26:01.000Z,21.34
2023-05-15T12:26:58.000Z,21.38
2023-05-15T12:28:03.000Z,21.50
2023-05-15T12:28:58.000Z,21.48
2023-05-15T12:29:59.000Z,21.61
2023-05-15T12:30:58.000Z,21.53
2023-05-15T12:31:58.000Z,21.57
2023-05-15T12:33:01.000Z,21.55
2023-05-15T12:33:58.000Z,21.54
2023-05-15T12:35:02.000Z,21.58
2023-05-15T12:35:58.000Z,21.70
2023-05-15T12:36:58.000Z,21.67
2023-05-15T12:37:59.000Z,21.62
2023-05-15T12:39:05.000Z,21.53
2023-05-15T12:40:00.000Z,21.46
2023-05-15T12:40:58.000Z,21.42
2023-05-15T12:41:58.000Z,21.32
2023-05-15T12:43:04.000Z,21.24
2023-05-15T12:43:58.000Z,21.14
2023-05-15T12:44:58.000Z,20.92
2023-05-15T12:45:58.000Z,20.84
2023-05-15T12:46:58.000Z,20.90
2023-05-15T12:47:58.000Z,20.87
2023-05-15T12:48:59.000Z,20.78
2023-05-15T12:49:58.000Z,20.80
2023-05-15T12:51:06.000Z,20.79
2023-05-15T12:52:06.000Z,20.74
2023-05-15T12:53:03.000Z,20.82